Ana Sayfa
METAR-TAF:

METAR-TAF

Havaalanları :

Oswego County Airport

Fulton, New York, Amerika Birleşik Devletleri

Enlem: 43-21-03N, Boylam: 076-23-17W, yükseklik: 145 m

Güncel hava durumu gözlemi

Rapor saat 18:54 UTC de 35 dakika önce yapıldı.
Rüzgar batı/kuzeybatıdan 17 kt ve 28 kt'a kadar ani rüzgarlar
Sıcaklık 2°C
Nem 69%
Basınç 1011 hPa
Görüş mesafesi: 16.1 km
2400 ft yükseklikte çok bulutlu

METAR: KFZY 021854Z AUTO 29017G28KT 10SM OVC024 02/M03 A2985 RMK AO2 PK WND 28031/1802 RAB03E13 SLP114 P0002 T00171028 $

Saat: 14:29 (19:29 UTC)


TAF: eksik

4.000'den fazla havaalanı için hava durumu gözlemleri ve tahminleri (METAR ve TAF raporları).

Kullanılabilir istasyonlar harita üzerinde sarı ve kırmızı noktalarla gösterilir.

İstasyonun adını görmek için fareyi noktanın üzerinde gezdirin.

Sonrasında hava gözlem ve tahminlerini görmek için tıklayın.

Haritayı değiştirmek için: yaklaştırmak için siyah artı işaretli yeşil düğmeye ve uzaklaştırmak için de eksi işaretli düğmeye hızla tıklayın; bitişik haritalar için yeşil okları kullanın.


METAR-TAF: